createdAt,value
2018-12-19T00:02:21.168Z,3.03
2018-12-19T00:04:49.591Z,3.10
2018-12-19T00:07:17.972Z,3.70
2018-12-19T00:09:46.356Z,3.33
2018-12-19T00:12:14.728Z,3.27
2018-12-19T00:14:43.124Z,3.80
2018-12-19T00:17:11.605Z,3.17
2018-12-19T00:19:40.079Z,2.93
2018-12-19T00:22:08.463Z,3.50
2018-12-19T00:24:36.828Z,2.90
2018-12-19T00:27:05.225Z,3.00
2018-12-19T00:29:33.576Z,2.67
2018-12-19T00:32:02.155Z,3.10
2018-12-19T00:34:30.651Z,3.20
2018-12-19T00:36:59.079Z,3.20
2018-12-19T00:39:27.437Z,3.00
2018-12-19T00:41:55.815Z,3.20
2018-12-19T00:44:24.191Z,3.43
2018-12-19T00:46:52.577Z,3.33
2018-12-19T00:49:20.936Z,3.17
2018-12-19T00:51:49.363Z,2.80
2018-12-19T00:54:17.723Z,2.90
2018-12-19T00:56:46.121Z,3.37
2018-12-19T00:59:14.535Z,3.20
2018-12-19T01:01:42.970Z,2.80
2018-12-19T01:04:11.323Z,3.10
2018-12-19T01:06:40.283Z,3.07
2018-12-19T01:09:08.736Z,3.00
2018-12-19T01:11:37.156Z,3.20
2018-12-19T01:14:06.343Z,3.33
2018-12-19T01:16:34.731Z,3.00
2018-12-19T01:19:03.159Z,3.20
2018-12-19T01:21:31.533Z,3.17
2018-12-19T01:23:59.935Z,3.60
2018-12-19T01:26:28.355Z,3.50
2018-12-19T01:28:56.734Z,3.57
2018-12-19T01:31:25.119Z,4.03
2018-12-19T01:33:53.637Z,4.53
2018-12-19T01:36:22.072Z,4.63
2018-12-19T01:38:50.512Z,4.53
2018-12-19T01:41:18.927Z,4.80
2018-12-19T01:43:47.372Z,5.20
2018-12-19T01:46:15.778Z,4.90
2018-12-19T01:48:44.159Z,5.33
2018-12-19T01:51:12.655Z,5.20
2018-12-19T01:53:42.123Z,5.10
2018-12-19T01:56:10.545Z,4.77
2018-12-19T01:58:38.899Z,4.73
2018-12-19T02:01:07.330Z,5.00
2018-12-19T02:03:35.699Z,4.73
2018-12-19T02:06:04.076Z,4.57
2018-12-19T02:08:32.463Z,4.50
2018-12-19T02:11:00.882Z,4.40
2018-12-19T02:13:29.267Z,4.90
2018-12-19T02:15:57.728Z,4.23
2018-12-19T02:18:26.121Z,4.60
2018-12-19T02:20:54.496Z,4.43
2018-12-19T02:23:22.896Z,4.07
2018-12-19T02:25:51.296Z,4.73
2018-12-19T02:28:19.703Z,3.67
2018-12-19T02:30:48.106Z,4.07
2018-12-19T02:33:16.476Z,4.20
2018-12-19T02:35:44.853Z,3.73
2018-12-19T02:38:13.266Z,3.50
2018-12-19T02:40:41.652Z,3.67
2018-12-19T02:43:10.093Z,3.40
2018-12-19T02:45:38.474Z,3.07
2018-12-19T02:48:06.859Z,3.80
2018-12-19T02:50:35.273Z,3.60
2018-12-19T02:53:03.684Z,3.33
2018-12-19T02:55:32.096Z,4.10
2018-12-19T02:58:00.461Z,3.43
2018-12-19T03:00:28.832Z,3.10
2018-12-19T03:02:57.214Z,3.43
2018-12-19T03:05:25.594Z,3.90
2018-12-19T03:07:54.017Z,3.50
2018-12-19T03:10:22.404Z,3.83
2018-12-19T03:12:50.846Z,3.00
2018-12-19T03:15:19.321Z,3.80
2018-12-19T03:17:47.767Z,3.50
2018-12-19T03:20:16.246Z,3.43
2018-12-19T03:22:44.631Z,3.65
2018-12-19T03:25:13.015Z,3.40
2018-12-19T03:27:41.402Z,3.10
2018-12-19T03:30:10.064Z,3.30
2018-12-19T03:32:38.464Z,3.40
2018-12-19T03:35:06.992Z,3.10
2018-12-19T03:37:35.381Z,3.40
2018-12-19T03:40:10.360Z,2.80
2018-12-19T03:42:38.751Z,3.00
2018-12-19T03:45:07.581Z,2.93
2018-12-19T03:47:36.085Z,2.97
2018-12-19T03:50:04.982Z,2.80
2018-12-19T03:52:33.372Z,3.20
2018-12-19T03:55:01.764Z,3.20
2018-12-19T03:57:30.371Z,2.87
2018-12-19T03:59:58.739Z,2.73
2018-12-19T04:02:27.129Z,3.23
2018-12-19T04:04:55.555Z,3.10
2018-12-19T04:07:23.973Z,3.13
2018-12-19T04:09:57.636Z,3.33
2018-12-19T04:12:23.936Z,3.97
2018-12-19T04:14:53.475Z,2.70
2018-12-19T04:17:21.972Z,3.23
2018-12-19T04:19:50.343Z,3.67
2018-12-19T04:22:18.817Z,3.93
2018-12-19T04:24:47.207Z,3.60
2018-12-19T04:27:15.586Z,3.50
2018-12-19T04:29:44.165Z,3.23
2018-12-19T04:32:12.877Z,3.00
2018-12-19T04:34:41.257Z,3.47
2018-12-19T04:37:09.712Z,3.57
2018-12-19T04:39:38.137Z,3.00
2018-12-19T04:42:06.516Z,3.10
2018-12-19T04:44:34.906Z,3.40
2018-12-19T04:47:03.280Z,3.20
2018-12-19T04:49:31.726Z,3.70
2018-12-19T04:52:00.092Z,3.77
2018-12-19T04:54:28.483Z,3.30
2018-12-19T04:56:57.091Z,3.20
2018-12-19T04:59:25.604Z,3.50
2018-12-19T05:01:54.059Z,3.40
2018-12-19T05:04:22.519Z,3.40
2018-12-19T05:06:50.905Z,3.00
2018-12-19T05:09:19.296Z,3.13
2018-12-19T05:11:47.687Z,3.10
2018-12-19T05:14:16.387Z,2.87
2018-12-19T05:16:44.911Z,2.87
2018-12-19T05:19:13.315Z,2.97
2018-12-19T05:21:41.675Z,3.47
2018-12-19T05:24:10.147Z,2.83
2018-12-19T05:26:38.532Z,2.90
2018-12-19T05:29:09.007Z,2.53
2018-12-19T05:31:37.387Z,2.30
2018-12-19T05:34:05.763Z,2.70
2018-12-19T05:36:34.141Z,2.87
2018-12-19T05:39:10.968Z,3.10
2018-12-19T05:41:39.372Z,3.13
2018-12-19T05:44:07.781Z,3.10
2018-12-19T05:46:36.159Z,2.70
2018-12-19T05:49:04.555Z,3.10
2018-12-19T05:51:33.016Z,2.73
2018-12-19T05:54:01.447Z,3.00
2018-12-19T05:56:30.815Z,3.10
2018-12-19T05:59:19.806Z,3.10
2018-12-19T06:01:49.151Z,3.40
2018-12-19T06:04:17.616Z,2.83
2018-12-19T06:06:46.066Z,3.00
2018-12-19T06:09:14.521Z,4.90
2018-12-19T06:11:42.905Z,3.33
2018-12-19T06:14:11.287Z,5.07
2018-12-19T06:16:39.711Z,4.00
2018-12-19T06:19:08.108Z,1.90
2018-12-19T06:21:36.579Z,2.50
2018-12-19T06:24:04.971Z,2.30
2018-12-19T06:26:33.955Z,2.40
2018-12-19T06:29:02.364Z,2.57
2018-12-19T06:31:30.808Z,2.27
2018-12-19T06:33:59.700Z,2.50
2018-12-19T06:36:28.319Z,2.10
2018-12-19T06:38:56.741Z,2.93
2018-12-19T06:41:25.136Z,2.40
2018-12-19T06:43:53.651Z,2.43
2018-12-19T06:46:22.036Z,3.00
2018-12-19T06:48:50.414Z,2.73
2018-12-19T06:51:19.117Z,2.47
2018-12-19T06:53:47.548Z,2.90
2018-12-19T06:56:15.911Z,3.20
2018-12-19T06:58:44.312Z,3.10
2018-12-19T07:01:12.683Z,3.17
2018-12-19T07:03:41.064Z,3.00
2018-12-19T07:06:09.756Z,3.33
2018-12-19T07:08:38.562Z,3.00
2018-12-19T07:11:06.971Z,3.00
2018-12-19T07:13:35.423Z,3.30
2018-12-19T07:16:03.799Z,3.37
2018-12-19T07:18:32.235Z,3.40
2018-12-19T07:21:01.039Z,3.40
2018-12-19T07:23:29.457Z,4.10
2018-12-19T07:25:57.927Z,3.93
2018-12-19T07:28:26.335Z,3.90
2018-12-19T07:30:54.725Z,4.40
2018-12-19T07:33:23.115Z,3.17
2018-12-19T07:35:51.556Z,3.47
2018-12-19T07:38:20.239Z,3.40
2018-12-19T07:40:59.983Z,3.93
2018-12-19T07:43:28.419Z,4.10
2018-12-19T07:45:56.828Z,4.37
2018-12-19T07:48:26.115Z,6.30
2018-12-19T07:50:54.608Z,7.93
2018-12-19T07:53:23.084Z,9.23
2018-12-19T07:55:51.619Z,8.90
2018-12-19T07:58:20.012Z,4.60
2018-12-19T08:00:48.404Z,4.20
2018-12-19T08:03:16.807Z,4.00
2018-12-19T08:05:45.213Z,4.10
2018-12-19T08:08:13.559Z,4.40
2018-12-19T08:10:42.039Z,4.10
2018-12-19T08:13:10.428Z,4.87
2018-12-19T08:15:38.907Z,5.00
2018-12-19T08:18:07.386Z,5.53
2018-12-19T08:20:35.832Z,5.37
2018-12-19T08:23:04.184Z,4.27
2018-12-19T08:25:32.603Z,3.93
2018-12-19T08:28:00.968Z,3.87
2018-12-19T08:30:29.384Z,3.40
2018-12-19T08:32:57.882Z,3.90
2018-12-19T08:35:26.263Z,3.90
2018-12-19T08:37:54.641Z,3.90
2018-12-19T08:40:23.027Z,3.20
2018-12-19T08:42:51.496Z,2.87
2018-12-19T08:45:20.605Z,2.97
2018-12-19T08:47:49.091Z,2.87
2018-12-19T08:50:17.553Z,2.70
2018-12-19T08:52:45.988Z,2.80
2018-12-19T08:55:14.516Z,2.33
2018-12-19T08:57:42.988Z,3.30
2018-12-19T09:00:12.595Z,2.67
2018-12-19T09:02:40.969Z,2.90
2018-12-19T09:05:09.395Z,3.07
2018-12-19T09:07:37.770Z,3.20
2018-12-19T09:10:06.829Z,2.97
2018-12-19T09:12:35.211Z,2.97
2018-12-19T09:15:03.844Z,3.00
2018-12-19T09:17:32.268Z,2.90
2018-12-19T09:20:00.970Z,2.20
2018-12-19T09:22:29.504Z,2.80
2018-12-19T09:24:57.974Z,2.57
2018-12-19T09:27:26.352Z,2.77
2018-12-19T09:29:54.743Z,2.93
2018-12-19T09:32:23.103Z,2.93
2018-12-19T09:34:51.538Z,3.10
2018-12-19T09:37:19.960Z,2.53
2018-12-19T09:39:48.958Z,2.90
2018-12-19T09:42:17.320Z,2.60
2018-12-19T09:44:45.696Z,3.20
2018-12-19T09:47:14.071Z,2.60
2018-12-19T09:49:42.441Z,2.60
2018-12-19T09:52:10.832Z,2.67
2018-12-19T09:54:39.759Z,2.70
2018-12-19T09:57:08.191Z,2.40
2018-12-19T09:59:36.563Z,1.87
2018-12-19T10:02:18.242Z,2.30
2018-12-19T10:04:46.629Z,2.23
2018-12-19T10:07:15.011Z,2.17
2018-12-19T10:09:43.363Z,2.13
2018-12-19T10:12:11.740Z,2.27
2018-12-19T10:14:40.120Z,1.73
2018-12-19T10:17:08.535Z,2.33
2018-12-19T10:19:36.910Z,2.23
2018-12-19T10:22:05.417Z,1.90
2018-12-19T10:24:39.374Z,2.77
2018-12-19T10:27:07.753Z,2.73
2018-12-19T10:29:36.457Z,3.37
2018-12-19T10:32:04.956Z,3.27
2018-12-19T10:34:33.407Z,2.33
2018-12-19T10:37:01.905Z,2.90
2018-12-19T10:39:30.283Z,2.70
2018-12-19T10:41:59.157Z,3.57
2018-12-19T10:44:30.496Z,1.37
2018-12-19T10:55:48.091Z,2.00
2018-12-19T10:58:16.467Z,1.83
2018-12-19T11:00:50.101Z,1.30
2018-12-19T11:03:18.471Z,2.40
2018-12-19T11:05:46.876Z,1.70
2018-12-19T11:08:15.251Z,2.23
2018-12-19T11:10:45.130Z,2.90
2018-12-19T11:13:16.959Z,1.17
2018-12-19T11:15:45.807Z,1.53
2018-12-19T11:18:14.176Z,1.40
2018-12-19T11:20:43.164Z,1.33
2018-12-19T11:23:11.596Z,1.50
2018-12-19T11:25:40.177Z,1.40
2018-12-19T11:28:08.740Z,2.07
2018-12-19T11:30:37.112Z,1.50
2018-12-19T11:33:05.535Z,1.57
2018-12-19T11:35:33.988Z,1.30
2018-12-19T11:38:02.410Z,1.90
2018-12-19T11:40:30.820Z,1.30
2018-12-19T11:42:59.246Z,1.43
2018-12-19T11:45:27.663Z,1.67
2018-12-19T11:47:56.168Z,1.50
2018-12-19T11:50:24.603Z,1.70
2018-12-19T11:52:53.124Z,1.80
2018-12-19T11:55:21.550Z,1.43
2018-12-19T11:57:49.931Z,1.03
2018-12-19T12:00:18.407Z,1.30
2018-12-19T12:02:46.795Z,1.47
2018-12-19T12:05:15.193Z,1.73
2018-12-19T12:07:43.702Z,1.13
2018-12-19T12:10:12.211Z,1.50
2018-12-19T12:12:41.584Z,2.53
2018-12-19T12:15:10.199Z,2.67
2018-12-19T12:17:38.600Z,2.90
2018-12-19T12:23:05.612Z,2.27
2018-12-19T12:25:34.202Z,2.10
2018-12-19T12:28:02.848Z,2.50
2018-12-19T12:30:31.515Z,2.00
2018-12-19T12:33:00.059Z,2.50
2018-12-19T12:35:28.571Z,2.40
2018-12-19T12:37:57.236Z,1.63
2018-12-19T12:40:25.723Z,1.50
2018-12-19T12:42:54.300Z,2.80
2018-12-19T12:45:22.856Z,1.70
2018-12-19T12:47:51.259Z,2.10
2018-12-19T12:53:26.726Z,1.83
2018-12-19T12:55:55.909Z,2.10
2018-12-19T12:58:24.390Z,1.80
2018-12-19T13:00:52.752Z,1.87
2018-12-19T13:03:21.131Z,1.50
2018-12-19T13:05:49.523Z,1.80
2018-12-19T13:08:17.912Z,1.90
2018-12-19T13:10:47.427Z,1.50
2018-12-19T13:13:15.963Z,1.63
2018-12-19T13:15:48.000Z,1.93
2018-12-19T13:18:29.697Z,1.50
2018-12-19T13:20:58.251Z,2.00
2018-12-19T13:23:26.916Z,1.67
2018-12-19T13:25:55.524Z,1.70
2018-12-19T13:28:24.032Z,1.93
2018-12-19T13:36:32.031Z,1.80
2018-12-19T13:39:00.657Z,2.40
2018-12-19T13:41:29.182Z,1.90
2018-12-19T13:43:59.868Z,1.87
2018-12-19T13:49:30.860Z,2.57
2018-12-19T13:52:03.534Z,1.70
2018-12-19T13:54:36.678Z,1.53
2018-12-19T13:57:05.227Z,1.77
2018-12-19T13:59:34.610Z,1.73
2018-12-19T14:02:03.037Z,1.83
2018-12-19T14:04:32.059Z,2.17
2018-12-19T14:07:01.010Z,1.83
2018-12-19T14:09:29.404Z,1.70
2018-12-19T14:11:57.767Z,1.70
2018-12-19T14:14:26.162Z,1.03
2018-12-19T14:16:54.570Z,2.00
2018-12-19T14:19:22.961Z,1.93
2018-12-19T14:21:51.364Z,1.73
2018-12-19T14:24:19.751Z,2.07
2018-12-19T14:26:48.136Z,1.90
2018-12-19T14:29:16.556Z,2.03
2018-12-19T14:31:44.953Z,2.03
2018-12-19T14:34:13.319Z,2.13
2018-12-19T14:36:41.700Z,2.10
2018-12-19T14:39:10.083Z,2.10
2018-12-19T14:41:38.428Z,1.87
2018-12-19T14:44:06.851Z,2.20
2018-12-19T14:46:35.218Z,2.43
2018-12-19T14:49:03.998Z,2.37
2018-12-19T14:51:32.423Z,2.37
2018-12-19T14:54:00.807Z,1.70
2018-12-19T14:56:29.162Z,2.40
2018-12-19T14:58:57.568Z,2.17
2018-12-19T15:01:25.923Z,2.53
2018-12-19T15:03:54.324Z,2.07
2018-12-19T15:06:22.705Z,2.23
2018-12-19T15:08:51.091Z,1.83
2018-12-19T15:11:19.606Z,2.30
2018-12-19T15:13:47.988Z,2.30
2018-12-19T15:16:20.531Z,2.20
2018-12-19T15:18:48.921Z,1.73
2018-12-19T15:21:17.291Z,2.23
2018-12-19T15:23:45.665Z,1.70
2018-12-19T15:26:14.019Z,2.10
2018-12-19T15:28:42.399Z,2.20
2018-12-19T15:31:10.798Z,2.40
2018-12-19T15:33:39.182Z,3.47
2018-12-19T15:36:07.647Z,2.20
2018-12-19T15:38:36.032Z,2.13
2018-12-19T15:41:04.392Z,2.17
2018-12-19T15:43:32.787Z,2.10
2018-12-19T15:46:01.159Z,2.10
2018-12-19T15:48:29.681Z,3.07
2018-12-19T15:50:58.076Z,2.63
2018-12-19T15:53:26.468Z,6.77
2018-12-19T15:55:54.867Z,2.33
2018-12-19T15:58:23.348Z,3.50
2018-12-19T16:00:51.707Z,4.70
2018-12-19T16:03:20.099Z,2.53
2018-12-19T16:06:51.258Z,3.43
2018-12-19T16:09:19.644Z,3.87
2018-12-19T16:11:48.011Z,4.23
2018-12-19T16:14:16.384Z,4.67
2018-12-19T16:16:44.790Z,2.90
2018-12-19T16:19:13.156Z,2.70
2018-12-19T16:21:41.516Z,2.50
2018-12-19T16:24:09.907Z,2.00
2018-12-19T16:26:38.287Z,2.40
2018-12-19T16:29:06.747Z,2.23
2018-12-19T16:31:35.106Z,2.07
2018-12-19T16:34:03.507Z,2.47
2018-12-19T16:36:31.978Z,4.13
2018-12-19T16:39:00.369Z,5.00
2018-12-19T16:41:28.756Z,3.43
2018-12-19T16:43:57.228Z,4.17
2018-12-19T16:46:25.708Z,7.50
2018-12-19T16:48:54.083Z,3.37
2018-12-19T16:51:23.356Z,7.90
2018-12-19T16:53:51.744Z,3.47
2018-12-19T16:56:20.106Z,3.70
2018-12-19T16:58:48.520Z,5.07
2018-12-19T17:01:16.883Z,9.03
2018-12-19T17:03:45.260Z,3.83
2018-12-19T17:06:13.644Z,3.53
2018-12-19T17:08:42.040Z,5.20
2018-12-19T17:11:10.432Z,2.90
2018-12-19T17:13:38.835Z,4.30
2018-12-19T17:16:07.245Z,2.73
2018-12-19T17:18:35.599Z,2.83
2018-12-19T17:21:04.107Z,2.40
2018-12-19T17:23:32.455Z,2.97
2018-12-19T17:26:00.860Z,2.70
2018-12-19T17:28:29.272Z,2.67
2018-12-19T17:30:57.664Z,2.57
2018-12-19T17:33:26.024Z,2.93
2018-12-19T17:35:54.427Z,3.00
2018-12-19T17:38:22.816Z,2.43
2018-12-19T17:40:51.256Z,3.10
2018-12-19T17:43:19.685Z,2.80
2018-12-19T17:45:48.064Z,2.83
2018-12-19T17:48:16.879Z,3.07
2018-12-19T17:50:45.315Z,2.97
2018-12-19T17:53:13.798Z,3.10
2018-12-19T17:55:42.275Z,3.60
2018-12-19T17:58:11.006Z,3.40
2018-12-19T18:00:39.452Z,3.37
2018-12-19T18:03:07.868Z,3.10
2018-12-19T18:05:36.445Z,3.33
2018-12-19T18:08:04.879Z,3.00
2018-12-19T18:10:33.434Z,3.10
2018-12-19T18:13:06.093Z,3.13
2018-12-19T18:15:32.368Z,3.10
2018-12-19T18:18:00.757Z,2.93
2018-12-19T18:20:29.188Z,2.80
2018-12-19T18:22:57.912Z,3.17
2018-12-19T18:25:26.316Z,3.20
2018-12-19T18:27:54.702Z,3.53
2018-12-19T18:30:23.098Z,3.00
2018-12-19T18:32:51.728Z,3.50
2018-12-19T18:35:20.145Z,4.20
2018-12-19T18:37:48.503Z,3.43
2018-12-19T18:40:16.956Z,3.97
2018-12-19T18:42:45.596Z,3.90
2018-12-19T18:45:14.059Z,3.93
2018-12-19T18:47:42.461Z,4.07
2018-12-19T18:50:10.991Z,4.00
2018-12-19T18:52:39.372Z,4.30
2018-12-19T18:55:08.305Z,4.37
2018-12-19T18:57:37.066Z,4.60
2018-12-19T19:00:06.642Z,4.80
2018-12-19T19:02:35.120Z,4.40
2018-12-19T19:05:04.055Z,5.07
2018-12-19T19:07:32.508Z,4.27
2018-12-19T19:10:00.935Z,4.37
2018-12-19T19:12:29.611Z,4.50
2018-12-19T19:14:58.420Z,4.33
2018-12-19T19:17:26.839Z,4.70
2018-12-19T19:19:55.288Z,4.87
2018-12-19T19:22:23.679Z,4.57
2018-12-19T19:24:52.023Z,4.37
2018-12-19T19:27:20.491Z,5.17
2018-12-19T19:29:48.923Z,5.03
2018-12-19T19:32:18.777Z,5.03
2018-12-19T19:34:47.473Z,4.90
2018-12-19T19:37:15.906Z,5.07
2018-12-19T19:39:44.576Z,5.07
2018-12-19T19:42:12.951Z,4.73
2018-12-19T19:44:41.504Z,5.30
2018-12-19T19:47:09.937Z,5.27
2018-12-19T19:49:38.407Z,6.53
2018-12-19T19:52:06.964Z,8.43
2018-12-19T19:54:35.491Z,7.70
2018-12-19T19:57:03.999Z,5.27
2018-12-19T19:59:32.411Z,5.57
2018-12-19T20:02:00.825Z,4.87
2018-12-19T20:04:29.391Z,5.00
2018-12-19T20:07:00.877Z,4.30
2018-12-19T20:09:28.345Z,5.10
2018-12-19T20:11:57.871Z,6.20
2018-12-19T20:14:26.887Z,5.47
2018-12-19T20:17:01.167Z,5.90
2018-12-19T20:19:30.684Z,4.90
2018-12-19T20:21:59.452Z,4.47
2018-12-19T20:24:28.221Z,5.87
2018-12-19T20:26:56.976Z,6.10
2018-12-19T20:29:25.337Z,7.50
2018-12-19T20:31:54.337Z,8.30
2018-12-19T20:34:23.037Z,6.53
2018-12-19T20:36:51.818Z,8.00
2018-12-19T20:39:20.528Z,6.70
2018-12-19T20:41:49.261Z,5.20
2018-12-19T20:44:17.619Z,6.23
2018-12-19T20:46:46.503Z,5.90
2018-12-19T20:49:16.186Z,4.90
2018-12-19T20:51:44.904Z,4.20
2018-12-19T20:54:13.768Z,4.03
2018-12-19T20:56:42.191Z,4.07
2018-12-19T20:59:11.715Z,6.20
2018-12-19T21:01:40.432Z,4.93
2018-12-19T21:04:09.208Z,7.83
2018-12-19T21:06:37.876Z,5.67
2018-12-19T21:09:09.000Z,4.00
2018-12-19T21:11:37.869Z,4.77
2018-12-19T21:14:06.727Z,3.57
2018-12-19T21:16:40.901Z,4.73
2018-12-19T21:19:13.119Z,3.77
2018-12-19T21:21:42.506Z,3.93
2018-12-19T21:24:11.214Z,4.30
2018-12-19T21:26:39.941Z,4.30
2018-12-19T21:29:08.678Z,3.23
2018-12-19T21:31:37.319Z,3.20
2018-12-19T21:34:06.214Z,3.50
2018-12-19T21:36:35.572Z,3.40
2018-12-19T21:39:06.713Z,3.20
2018-12-19T21:41:35.532Z,3.47
2018-12-19T21:44:04.244Z,3.70
2018-12-19T21:46:32.967Z,3.00
2018-12-19T21:49:01.452Z,3.30
2018-12-19T21:51:31.944Z,3.17
2018-12-19T21:54:00.999Z,3.00
2018-12-19T21:56:29.746Z,3.60
2018-12-19T21:58:58.964Z,2.80
2018-12-19T22:01:27.891Z,3.77
2018-12-19T22:03:57.196Z,3.43
2018-12-19T22:06:30.318Z,2.50
2018-12-19T22:08:59.211Z,3.00
2018-12-19T22:11:28.288Z,2.50
2018-12-19T22:14:00.533Z,2.63
2018-12-19T22:16:32.443Z,2.90
2018-12-19T22:19:00.934Z,2.67
2018-12-19T22:21:29.579Z,2.70
2018-12-19T22:23:58.223Z,2.30
2018-12-19T22:26:26.601Z,2.87
2018-12-19T22:28:54.996Z,2.30
2018-12-19T22:31:23.513Z,2.53
2018-12-19T22:33:52.144Z,2.60
2018-12-19T22:36:20.580Z,2.63
2018-12-19T22:38:49.052Z,2.70
2018-12-19T22:41:17.551Z,2.57
2018-12-19T22:43:46.111Z,2.50
2018-12-19T22:46:14.528Z,2.67
2018-12-19T22:48:43.032Z,2.43
2018-12-19T22:51:11.515Z,2.53
2018-12-19T22:53:39.954Z,2.43
2018-12-19T22:56:08.326Z,2.50
2018-12-19T22:58:36.799Z,3.27
2018-12-19T23:01:11.226Z,2.27
2018-12-19T23:03:45.048Z,2.47
2018-12-19T23:06:13.495Z,2.33
2018-12-19T23:08:41.969Z,2.77
2018-12-19T23:11:10.411Z,2.37
2018-12-19T23:13:38.819Z,2.60
2018-12-19T23:16:07.215Z,2.73
2018-12-19T23:18:37.812Z,2.37
2018-12-19T23:21:06.356Z,2.77
2018-12-19T23:23:34.859Z,3.20
2018-12-19T23:26:03.568Z,3.00
2018-12-19T23:28:32.083Z,2.93
2018-12-19T23:31:00.587Z,3.40
2018-12-19T23:33:29.414Z,3.17
2018-12-19T23:35:57.923Z,3.30
2018-12-19T23:38:26.375Z,3.00
2018-12-19T23:40:54.769Z,3.33
2018-12-19T23:43:23.142Z,3.40
2018-12-19T23:45:51.563Z,3.40
2018-12-19T23:48:20.033Z,3.40
2018-12-19T23:50:48.508Z,3.50
2018-12-19T23:53:16.967Z,3.20
2018-12-19T23:55:45.537Z,3.77
2018-12-19T23:58:13.945Z,3.17
